createdAt,value
2015-08-05T00:00:05.864Z,99.99
2015-08-05T00:00:18.239Z,99.99
2015-08-05T00:00:30.629Z,99.99
2015-08-05T00:00:43.004Z,99.99
2015-08-05T00:00:55.379Z,99.99
2015-08-05T00:01:07.756Z,99.99
2015-08-05T00:01:20.131Z,99.99
2015-08-05T00:01:32.506Z,99.99
2015-08-05T00:01:44.881Z,99.99
2015-08-05T00:01:57.272Z,99.99
2015-08-05T00:02:09.650Z,99.99
2015-08-05T00:02:22.041Z,99.99
2015-08-05T00:02:34.416Z,99.99
2015-08-05T00:02:46.806Z,99.99
2015-08-05T00:02:59.197Z,99.99
2015-08-05T00:03:11.604Z,99.99
2015-08-05T00:03:24.010Z,99.99
2015-08-05T00:03:36.417Z,99.99
2015-08-05T00:03:48.807Z,99.99
2015-08-05T00:04:01.214Z,99.99
2015-08-05T00:04:13.637Z,99.99
2015-08-05T00:04:26.044Z,99.99
2015-08-05T00:04:38.450Z,99.99
2015-08-05T00:04:50.856Z,99.99
2015-08-05T00:05:03.262Z,99.99
2015-08-05T00:05:15.671Z,99.99
2015-08-05T00:05:28.046Z,99.99
2015-08-05T00:05:40.421Z,99.99
2015-08-05T00:05:52.796Z,99.99
2015-08-05T00:06:05.171Z,99.99
2015-08-05T00:06:17.548Z,99.99
2015-08-05T00:06:29.923Z,99.99
2015-08-05T00:06:42.282Z,99.99
2015-08-05T00:06:54.673Z,99.99
2015-08-05T00:07:07.048Z,99.99
2015-08-05T00:07:19.425Z,99.99
2015-08-05T00:07:31.784Z,99.99
2015-08-05T00:07:44.159Z,99.99
2015-08-05T00:07:56.534Z,99.99
2015-08-05T00:08:08.909Z,99.99
2015-08-05T00:08:21.302Z,99.99
2015-08-05T00:08:33.677Z,99.99
2015-08-05T00:08:46.052Z,99.99
2015-08-05T00:08:58.427Z,99.99
2015-08-05T00:09:10.802Z,99.99
2015-08-05T00:09:23.179Z,99.99
2015-08-05T00:09:35.554Z,99.99
2015-08-05T00:09:47.929Z,99.99
2015-08-05T00:10:00.304Z,99.99
2015-08-05T00:10:12.679Z,99.99
2015-08-05T00:10:25.056Z,99.99
2015-08-05T00:10:37.431Z,99.99
2015-08-05T00:10:49.790Z,99.99
2015-08-05T00:11:02.165Z,99.99
2015-08-05T00:11:13.837Z,99.99
2015-08-05T00:11:26.245Z,99.99
2015-08-05T00:11:38.464Z,99.99
2015-08-05T00:11:50.855Z,99.99
2015-08-05T00:12:03.245Z,99.99
2015-08-05T00:12:15.620Z,99.99
2015-08-05T00:12:28.028Z,99.99
2015-08-05T00:12:40.450Z,99.99
2015-08-05T00:12:52.857Z,99.99
2015-08-05T00:13:05.263Z,99.99
2015-08-05T00:13:17.669Z,99.99
2015-08-05T00:13:30.077Z,99.99
2015-08-05T00:13:42.484Z,99.99
2015-08-05T00:13:54.890Z,99.99
2015-08-05T00:14:07.312Z,99.99
2015-08-05T00:14:19.702Z,99.99
2015-08-05T00:14:32.111Z,99.99
2015-08-05T00:14:44.532Z,99.99
2015-08-05T00:14:56.939Z,99.99
2015-08-05T00:15:09.314Z,99.99
2015-08-05T00:15:21.673Z,99.99
2015-08-05T00:15:34.050Z,99.99
2015-08-05T00:15:46.425Z,99.99
2015-08-05T00:15:58.800Z,99.99
2015-08-05T00:16:11.175Z,99.99
2015-08-05T00:16:23.550Z,99.99
2015-08-05T00:16:35.943Z,99.99
2015-08-05T00:16:48.318Z,99.99
2015-08-05T00:17:00.693Z,99.99
2015-08-05T00:17:13.068Z,99.99
2015-08-05T00:17:25.427Z,99.99
2015-08-05T00:17:37.820Z,99.99
2015-08-05T00:17:50.195Z,99.99
2015-08-05T00:18:02.585Z,99.99
2015-08-05T00:18:14.960Z,99.99
2015-08-05T00:18:27.335Z,99.99
2015-08-05T00:18:39.711Z,99.99
2015-08-05T00:18:52.086Z,99.99
2015-08-05T00:19:04.461Z,99.99
2015-08-05T00:19:16.836Z,99.99
2015-08-05T00:19:29.211Z,99.99
2015-08-05T00:19:41.588Z,99.99
2015-08-05T00:19:53.963Z,99.99
2015-08-05T00:20:06.338Z,99.99
2015-08-05T00:20:18.713Z,99.99
2015-08-05T00:20:31.088Z,99.99
2015-08-05T00:20:43.465Z,99.99
2015-08-05T00:20:55.856Z,99.99
2015-08-05T00:21:08.247Z,99.99
2015-08-05T00:21:20.622Z,99.99
2015-08-05T00:21:32.840Z,99.99
2015-08-05T00:21:45.234Z,99.99
2015-08-05T00:21:57.640Z,99.99
2015-08-05T00:22:10.031Z,99.99
2015-08-05T00:22:22.453Z,99.99
2015-08-05T00:22:34.843Z,99.99
2015-08-05T00:22:47.266Z,99.99
2015-08-05T00:22:59.672Z,99.99
2015-08-05T00:23:12.094Z,99.99
2015-08-05T00:23:24.501Z,99.99
2015-08-05T00:23:36.922Z,99.99
2015-08-05T00:23:49.315Z,99.99
2015-08-05T00:24:01.721Z,99.99
2015-08-05T00:24:14.159Z,99.99
2015-08-05T00:24:26.534Z,99.99
2015-08-05T00:24:38.909Z,99.99
2015-08-05T00:24:51.287Z,99.99
2015-08-05T00:25:03.662Z,99.99
2015-08-05T00:25:15.318Z,99.99
2015-08-05T00:25:27.693Z,99.99
2015-08-05T00:25:39.912Z,99.99
2015-08-05T00:25:52.289Z,99.99
2015-08-05T00:26:04.664Z,99.99
2015-08-05T00:26:17.039Z,99.99
2015-08-05T00:26:29.414Z,99.99
2015-08-05T00:26:41.789Z,99.99
2015-08-05T00:26:54.181Z,99.99
2015-08-05T00:27:06.556Z,99.99
2015-08-05T00:27:18.947Z,99.99
2015-08-05T00:27:31.306Z,99.99
2015-08-05T00:27:43.681Z,99.99
2015-08-05T00:27:56.058Z,99.99
2015-08-05T00:28:08.433Z,99.99
2015-08-05T00:28:20.808Z,99.99
2015-08-05T00:28:33.168Z,99.99
2015-08-05T00:28:45.543Z,99.99
2015-08-05T00:28:57.935Z,99.99
2015-08-05T00:29:09.592Z,99.99
2015-08-05T00:29:21.967Z,99.99
2015-08-05T00:29:34.342Z,99.99
2015-08-05T00:29:46.717Z,99.99
2015-08-05T00:29:59.094Z,99.99
2015-08-05T00:30:11.453Z,99.99
2015-08-05T00:30:23.844Z,99.99
2015-08-05T00:30:36.234Z,99.99
2015-08-05T00:30:48.609Z,99.99
2015-08-05T00:31:01.001Z,99.99
2015-08-05T00:31:13.376Z,99.99
2015-08-05T00:31:25.782Z,99.99
2015-08-05T00:31:38.188Z,99.99
2015-08-05T00:31:50.610Z,99.99
2015-08-05T00:32:03.003Z,99.99
2015-08-05T00:32:15.409Z,99.99
2015-08-05T00:32:27.815Z,99.99
2015-08-05T00:32:40.222Z,99.99
2015-08-05T00:32:52.612Z,99.99
2015-08-05T00:33:05.036Z,99.99
2015-08-05T00:33:17.427Z,99.99
2015-08-05T00:33:29.833Z,99.99
2015-08-05T00:33:42.255Z,99.99
2015-08-05T00:33:54.630Z,99.99
2015-08-05T00:34:07.008Z,99.99
2015-08-05T00:34:19.367Z,99.99
2015-08-05T00:34:31.742Z,99.99
2015-08-05T00:34:44.117Z,99.99
2015-08-05T00:34:56.492Z,99.99
2015-08-05T00:35:08.868Z,99.99
2015-08-05T00:35:21.243Z,99.99
2015-08-05T00:35:33.618Z,99.99
2015-08-05T00:35:45.993Z,99.99
2015-08-05T00:35:58.368Z,99.99
2015-08-05T00:36:10.745Z,99.99
2015-08-05T00:36:23.120Z,99.99
2015-08-05T00:36:35.495Z,99.99
2015-08-05T00:36:47.886Z,99.99
2015-08-05T00:37:00.261Z,99.99
2015-08-05T00:37:12.639Z,99.99
2015-08-05T00:37:25.014Z,99.99
2015-08-05T00:37:37.389Z,99.99
2015-08-05T00:37:49.748Z,99.99
2015-08-05T00:38:02.139Z,99.99
2015-08-05T00:38:14.532Z,99.99
2015-08-05T00:38:26.907Z,99.99
2015-08-05T00:38:39.282Z,99.99
2015-08-05T00:38:51.657Z,99.99
2015-08-05T00:39:04.016Z,99.99
2015-08-05T00:39:16.392Z,99.99
2015-08-05T00:39:28.783Z,99.99
2015-08-05T00:39:41.173Z,99.99
2015-08-05T00:39:53.564Z,99.99
2015-08-05T00:40:05.939Z,99.99
2015-08-05T00:40:18.332Z,99.99
2015-08-05T00:40:30.707Z,99.99
2015-08-05T00:40:43.098Z,99.99
2015-08-05T00:40:55.489Z,99.99
2015-08-05T00:41:07.911Z,99.99
2015-08-05T00:41:20.318Z,99.99
2015-08-05T00:41:32.724Z,99.99
2015-08-05T00:41:45.130Z,99.99
2015-08-05T00:41:57.537Z,99.99
2015-08-05T00:42:09.958Z,99.99
2015-08-05T00:42:22.351Z,99.99
2015-08-05T00:42:34.773Z,99.99
2015-08-05T00:42:47.164Z,99.99
2015-08-05T00:42:59.570Z,99.99
2015-08-05T00:43:11.976Z,99.99
2015-08-05T00:43:24.354Z,99.99
2015-08-05T00:43:36.745Z,99.99
2015-08-05T00:43:49.104Z,99.99
2015-08-05T00:44:01.479Z,99.99
2015-08-05T00:44:13.854Z,99.99
2015-08-05T00:44:26.231Z,99.99
2015-08-05T00:44:38.606Z,99.99
2015-08-05T00:44:50.981Z,99.99
2015-08-05T00:45:03.356Z,99.99
2015-08-05T00:45:15.731Z,99.99
2015-08-05T00:45:28.108Z,99.99
2015-08-05T00:45:40.483Z,99.99
2015-08-05T00:45:52.858Z,99.99
2015-08-05T00:46:05.233Z,99.99
2015-08-05T00:46:17.639Z,99.99
2015-08-05T00:46:30.015Z,99.99
2015-08-05T00:46:42.390Z,99.99
2015-08-05T00:46:54.765Z,99.99
2015-08-05T00:47:07.156Z,99.99
2015-08-05T00:47:19.531Z,99.99
2015-08-05T00:47:31.924Z,99.99
2015-08-05T00:47:44.314Z,99.99
2015-08-05T00:47:56.705Z,99.99
2015-08-05T00:48:09.080Z,99.99
2015-08-05T00:48:21.455Z,99.99
2015-08-05T00:48:33.816Z,99.99
2015-08-05T00:48:46.191Z,99.99
2015-08-05T00:48:58.566Z,99.99
2015-08-05T00:49:10.957Z,99.99
2015-08-05T00:49:23.332Z,99.99
2015-08-05T00:49:35.724Z,99.99
2015-08-05T00:49:48.099Z,99.99
2015-08-05T00:50:00.490Z,99.99
2015-08-05T00:50:12.881Z,99.99
2015-08-05T00:50:25.287Z,99.99
2015-08-05T00:50:37.695Z,99.99
2015-08-05T00:50:50.086Z,99.99
2015-08-05T00:51:02.492Z,99.99
2015-08-05T00:51:14.898Z,99.99
2015-08-05T00:51:26.601Z,99.99
2015-08-05T00:51:39.011Z,99.99
2015-08-05T00:51:51.433Z,99.99
2015-08-05T00:52:03.839Z,99.99
2015-08-05T00:52:16.229Z,99.99
2015-08-05T00:52:28.636Z,99.99
2015-08-05T00:52:41.012Z,99.99
2015-08-05T00:52:53.371Z,99.99
2015-08-05T00:53:05.746Z,99.99
2015-08-05T00:53:18.121Z,99.99
2015-08-05T00:53:30.496Z,99.99
2015-08-05T00:53:42.873Z,99.99
2015-08-05T00:53:55.248Z,99.99
2015-08-05T00:54:07.623Z,99.99
2015-08-05T00:54:19.998Z,99.99
2015-08-05T00:54:32.373Z,99.99
2015-08-05T00:54:44.750Z,99.99
2015-08-05T00:54:57.125Z,99.99
2015-08-05T00:55:09.500Z,99.99
2015-08-05T00:55:21.875Z,99.99
2015-08-05T00:55:34.266Z,99.99
2015-08-05T00:55:46.627Z,99.99
2015-08-05T00:55:59.002Z,99.99
2015-08-05T00:56:11.377Z,99.99
2015-08-05T00:56:23.033Z,99.99
2015-08-05T00:56:35.408Z,99.99
2015-08-05T00:56:47.785Z,99.99
2015-08-05T00:57:00.176Z,99.99
2015-08-05T00:57:12.551Z,99.99
2015-08-05T00:57:24.942Z,99.99
2015-08-05T00:57:37.317Z,99.99
2015-08-05T00:57:49.694Z,99.99
2015-08-05T00:58:02.069Z,99.99
2015-08-05T00:58:14.459Z,99.99
2015-08-05T00:58:26.850Z,99.99
2015-08-05T00:58:39.225Z,99.99
2015-08-05T00:58:51.602Z,99.99
2015-08-05T00:59:03.992Z,99.99
2015-08-05T00:59:16.383Z,99.99
2015-08-05T00:59:28.758Z,99.99
2015-08-05T00:59:41.164Z,99.99
2015-08-05T00:59:53.604Z,99.99
2015-08-05T01:00:05.994Z,99.99
2015-08-05T01:00:18.385Z,99.99
2015-08-05T01:00:30.791Z,99.99
2015-08-05T01:00:43.213Z,99.99
2015-08-05T01:00:55.605Z,99.99
2015-08-05T01:01:08.011Z,99.99
2015-08-05T01:01:19.714Z,99.99
2015-08-05T01:01:32.105Z,99.99
2015-08-05T01:01:44.527Z,99.99
2015-08-05T01:01:56.936Z,99.99
2015-08-05T01:02:08.639Z,99.99
2015-08-05T01:02:21.030Z,99.99
2015-08-05T01:02:33.389Z,99.99
2015-08-05T01:02:45.623Z,99.99
2015-08-05T01:02:58.000Z,99.99
2015-08-05T01:03:10.360Z,99.99
2015-08-05T01:03:22.735Z,99.99
2015-08-05T01:03:35.110Z,99.99
2015-08-05T01:03:46.782Z,99.99
2015-08-05T01:03:59.173Z,99.99
2015-08-05T01:04:11.548Z,99.99
2015-08-05T01:04:23.923Z,99.99
2015-08-05T01:04:36.314Z,99.99
2015-08-05T01:04:48.689Z,99.99
2015-08-05T01:05:01.083Z,99.99
2015-08-05T01:05:13.473Z,99.99
2015-08-05T01:05:25.833Z,99.99
2015-08-05T01:05:38.223Z,99.99
2015-08-05T01:05:50.614Z,99.99
2015-08-05T01:06:02.991Z,99.99
2015-08-05T01:06:15.366Z,99.99
2015-08-05T01:06:27.741Z,99.99
2015-08-05T01:06:40.116Z,99.99
2015-08-05T01:06:52.506Z,99.99
2015-08-05T01:07:04.883Z,99.99
2015-08-05T01:07:17.258Z,99.99
2015-08-05T01:07:29.633Z,99.99
2015-08-05T01:07:42.008Z,99.99
2015-08-05T01:07:54.383Z,99.99
2015-08-05T01:08:06.760Z,99.99
2015-08-05T01:08:19.151Z,99.99
2015-08-05T01:08:31.526Z,99.99
2015-08-05T01:08:43.917Z,99.99
2015-08-05T01:08:56.292Z,99.99
2015-08-05T01:09:08.699Z,99.99
2015-08-05T01:09:21.090Z,99.99
2015-08-05T01:09:33.496Z,99.99
2015-08-05T01:09:45.918Z,99.99
2015-08-05T01:09:57.605Z,99.99
2015-08-05T01:10:10.013Z,99.99
2015-08-05T01:10:22.404Z,99.99
2015-08-05T01:10:34.826Z,99.99
2015-08-05T01:10:47.232Z,99.99
2015-08-05T01:10:59.638Z,99.99
2015-08-05T01:11:12.047Z,99.99
2015-08-05T01:11:24.437Z,99.99
2015-08-05T01:11:36.859Z,99.99
2015-08-05T01:11:49.234Z,99.99
2015-08-05T01:12:01.609Z,99.99
2015-08-05T01:12:13.986Z,99.99
2015-08-05T01:12:25.642Z,99.99
2015-08-05T01:12:38.017Z,99.99
2015-08-05T01:12:50.392Z,99.99
2015-08-05T01:13:02.064Z,99.99
2015-08-05T01:13:14.441Z,99.99
2015-08-05T01:13:26.816Z,99.99
2015-08-05T01:13:39.191Z,99.99
2015-08-05T01:13:51.566Z,99.99
2015-08-05T01:14:03.941Z,99.99
2015-08-05T01:14:16.318Z,99.99
2015-08-05T01:14:28.693Z,99.99
2015-08-05T01:14:41.084Z,99.99
2015-08-05T01:14:53.459Z,99.99
2015-08-05T01:15:05.834Z,99.99
2015-08-05T01:15:18.212Z,99.99
2015-08-05T01:15:30.587Z,99.99
2015-08-05T01:15:42.962Z,99.99
2015-08-05T01:15:55.337Z,99.99
2015-08-05T01:16:07.728Z,99.99
2015-08-05T01:16:20.104Z,99.99
2015-08-05T01:16:32.479Z,99.99
2015-08-05T01:16:44.854Z,99.99
2015-08-05T01:16:57.229Z,99.99
2015-08-05T01:17:09.604Z,99.99
2015-08-05T01:17:21.965Z,99.99
2015-08-05T01:17:34.371Z,99.99
2015-08-05T01:17:46.762Z,99.99
2015-08-05T01:17:59.137Z,99.99
2015-08-05T01:18:11.527Z,99.99
2015-08-05T01:18:23.904Z,99.99
2015-08-05T01:18:36.295Z,99.99
2015-08-05T01:18:48.686Z,99.99
2015-08-05T01:19:01.108Z,99.99
2015-08-05T01:19:13.514Z,99.99
2015-08-05T01:19:25.907Z,99.99
2015-08-05T01:19:38.314Z,99.99
2015-08-05T01:19:50.736Z,99.99
2015-08-05T01:20:03.157Z,99.99
2015-08-05T01:20:15.548Z,99.99
2015-08-05T01:20:27.955Z,99.99
2015-08-05T01:20:40.362Z,99.99
2015-08-05T01:20:52.627Z,99.99
2015-08-05T01:21:05.033Z,99.99
2015-08-05T01:21:17.455Z,99.99
2015-08-05T01:21:29.832Z,99.99
2015-08-05T01:21:42.207Z,99.99
2015-08-05T01:21:54.582Z,99.99
2015-08-05T01:22:06.957Z,99.99
2015-08-05T01:22:19.332Z,99.99
2015-08-05T01:22:31.709Z,99.99
2015-08-05T01:22:44.084Z,99.99
2015-08-05T01:22:56.459Z,99.99
2015-08-05T01:23:08.834Z,99.99
2015-08-05T01:23:21.209Z,99.99
2015-08-05T01:23:33.586Z,99.99
2015-08-05T01:23:45.961Z,99.99
2015-08-05T01:23:58.336Z,99.99
2015-08-05T01:24:10.711Z,99.99
2015-08-05T01:24:23.102Z,99.99
2015-08-05T01:24:35.479Z,99.99
2015-08-05T01:24:47.870Z,99.99
2015-08-05T01:25:00.245Z,99.99
2015-08-05T01:25:12.620Z,99.99
2015-08-05T01:25:24.995Z,99.99
2015-08-05T01:25:37.372Z,99.99
2015-08-05T01:25:49.762Z,99.99
2015-08-05T01:26:02.137Z,99.99
2015-08-05T01:26:14.512Z,99.99
2015-08-05T01:26:26.887Z,99.99
2015-08-05T01:26:39.264Z,99.99
2015-08-05T01:26:51.639Z,99.99
2015-08-05T01:27:04.014Z,99.99
2015-08-05T01:27:16.405Z,99.99
2015-08-05T01:27:28.780Z,99.99
2015-08-05T01:27:41.172Z,99.99
2015-08-05T01:27:53.547Z,99.99
2015-08-05T01:28:05.938Z,99.99
2015-08-05T01:28:18.329Z,99.99
2015-08-05T01:28:30.735Z,99.99
2015-08-05T01:28:43.160Z,99.99
2015-08-05T01:28:55.566Z,99.99
2015-08-05T01:29:07.972Z,99.99
2015-08-05T01:29:20.379Z,99.99
2015-08-05T01:29:32.785Z,99.99
2015-08-05T01:29:45.192Z,99.99
2015-08-05T01:29:57.583Z,99.99
2015-08-05T01:30:10.005Z,99.99
2015-08-05T01:30:22.411Z,99.99
2015-08-05T01:30:34.817Z,99.99
2015-08-05T01:30:47.242Z,99.99
2015-08-05T01:30:59.617Z,99.99
2015-08-05T01:31:11.992Z,99.99
2015-08-05T01:31:24.367Z,99.99
2015-08-05T01:31:36.742Z,99.99
2015-08-05T01:31:49.119Z,99.99
2015-08-05T01:32:01.494Z,99.99
2015-08-05T01:32:13.869Z,99.99
2015-08-05T01:32:26.244Z,99.99
2015-08-05T01:32:38.619Z,99.99
2015-08-05T01:32:50.995Z,99.99
2015-08-05T01:33:02.667Z,99.99
2015-08-05T01:33:15.042Z,99.99
2015-08-05T01:33:27.417Z,99.99
2015-08-05T01:33:39.807Z,99.99
2015-08-05T01:33:52.184Z,99.99
2015-08-05T01:34:04.559Z,99.99
2015-08-05T01:34:16.934Z,99.99
2015-08-05T01:34:29.309Z,99.99
2015-08-05T01:34:41.700Z,99.99
2015-08-05T01:34:54.078Z,99.99
2015-08-05T01:35:06.453Z,99.99
2015-08-05T01:35:18.828Z,99.99
2015-08-05T01:35:31.219Z,99.99
2015-08-05T01:35:42.875Z,99.99
2015-08-05T01:35:55.267Z,99.99
2015-08-05T01:36:07.642Z,99.99
2015-08-05T01:36:20.017Z,99.99
2015-08-05T01:36:31.673Z,99.99
2015-08-05T01:36:44.048Z,99.99
2015-08-05T01:36:56.440Z,99.99
2015-08-05T01:37:08.831Z,99.99
2015-08-05T01:37:21.206Z,99.99
2015-08-05T01:37:33.581Z,99.99
2015-08-05T01:37:45.972Z,99.99
2015-08-05T01:37:58.364Z,99.99
2015-08-05T01:38:10.771Z,99.99
2015-08-05T01:38:23.177Z,99.99
2015-08-05T01:38:35.583Z,99.99
2015-08-05T01:38:47.989Z,99.99
2015-08-05T01:39:00.382Z,99.99
2015-08-05T01:39:12.804Z,99.99
2015-08-05T01:39:25.210Z,99.99
2015-08-05T01:39:37.632Z,99.99
2015-08-05T01:39:50.023Z,99.99
2015-08-05T01:40:02.431Z,99.99
2015-08-05T01:40:14.853Z,99.99
2015-08-05T01:40:27.228Z,99.99
2015-08-05T01:40:39.603Z,99.99
2015-08-05T01:40:51.978Z,99.99
2015-08-05T01:41:04.355Z,99.99
2015-08-05T01:41:16.730Z,99.99
2015-08-05T01:41:29.105Z,99.99
2015-08-05T01:41:41.480Z,99.99
2015-08-05T01:41:53.855Z,99.99
2015-08-05T01:42:06.232Z,99.99
2015-08-05T01:42:18.607Z,99.99
2015-08-05T01:42:30.982Z,99.99
2015-08-05T01:42:43.357Z,99.99
2015-08-05T01:42:55.732Z,99.99
2015-08-05T01:43:08.109Z,99.99
2015-08-05T01:43:20.484Z,99.99
2015-08-05T01:43:32.874Z,99.99
2015-08-05T01:43:45.234Z,99.99
2015-08-05T01:43:57.609Z,99.99
2015-08-05T01:44:09.986Z,99.99
2015-08-05T01:44:22.361Z,99.99
2015-08-05T01:44:34.736Z,99.99
2015-08-05T01:44:47.111Z,99.99
2015-08-05T01:44:58.783Z,99.99
2015-08-05T01:45:11.160Z,99.99
2015-08-05T01:45:23.535Z,99.99
2015-08-05T01:45:35.910Z,99.99
2015-08-05T01:45:48.285Z,99.99
2015-08-05T01:46:00.660Z,99.99
2015-08-05T01:46:13.037Z,99.99
2015-08-05T01:46:25.427Z,99.99
2015-08-05T01:46:37.818Z,99.99
2015-08-05T01:46:50.208Z,99.99
2015-08-05T01:47:02.583Z,99.99
2015-08-05T01:47:14.976Z,99.99
2015-08-05T01:47:27.367Z,99.99
2015-08-05T01:47:39.773Z,99.99
2015-08-05T01:47:52.195Z,99.99
2015-08-05T01:48:04.585Z,99.99
2015-08-05T01:48:16.994Z,99.99
2015-08-05T01:48:29.384Z,99.99
2015-08-05T01:48:41.791Z,99.99
2015-08-05T01:48:54.197Z,99.99
2015-08-05T01:49:06.603Z,99.99
2015-08-05T01:49:19.011Z,99.99
2015-08-05T01:49:31.418Z,99.99
2015-08-05T01:49:43.808Z,99.99
2015-08-05T01:49:56.183Z,99.99
2015-08-05T01:50:08.558Z,99.99
2015-08-05T01:50:20.919Z,99.99
2015-08-05T01:50:33.294Z,99.99
2015-08-05T01:50:45.669Z,99.99
2015-08-05T01:50:58.044Z,99.99
2015-08-05T01:51:10.434Z,99.99
2015-08-05T01:51:22.827Z,99.99
2015-08-05T01:51:35.202Z,99.99
2015-08-05T01:51:47.592Z,99.99
2015-08-05T01:51:59.967Z,99.99
2015-08-05T01:52:11.624Z,99.99
2015-08-05T01:52:24.002Z,99.99
2015-08-05T01:52:36.377Z,99.99
2015-08-05T01:52:48.767Z,99.99
2015-08-05T01:53:01.142Z,99.63
2015-08-05T01:53:13.517Z,98.97
2015-08-05T01:53:25.893Z,99.26
2015-08-05T01:53:38.268Z,98.68
2015-08-05T01:53:50.643Z,97.83
2015-08-05T01:54:03.018Z,97.74
2015-08-05T01:54:15.425Z,97.55
2015-08-05T01:54:27.803Z,96.88
2015-08-05T01:54:40.178Z,96.41
2015-08-05T01:54:52.553Z,96.78
2015-08-05T01:55:04.224Z,96.12
2015-08-05T01:55:16.599Z,96.41
2015-08-05T01:55:28.975Z,96.12
2015-08-05T01:55:41.366Z,96.12
2015-08-05T01:55:53.741Z,95.93
2015-08-05T01:56:06.132Z,96.31
2015-08-05T01:56:18.507Z,96.5
2015-08-05T01:56:30.885Z,96.22
2015-08-05T01:56:43.291Z,96.31
2015-08-05T01:56:55.697Z,96.31
2015-08-05T01:57:08.119Z,95.65
2015-08-05T01:57:20.510Z,95.93
2015-08-05T01:57:32.917Z,95.55
2015-08-05T01:57:45.339Z,95.65
2015-08-05T01:57:57.761Z,95.46
2015-08-05T01:58:10.151Z,95.27
2015-08-05T01:58:22.573Z,95.55
2015-08-05T01:58:34.981Z,95.07
2015-08-05T01:58:47.388Z,95.07
2015-08-05T01:58:59.810Z,95.07
2015-08-05T01:59:12.200Z,95.07
2015-08-05T01:59:24.575Z,95.65
2015-08-05T01:59:36.952Z,95.55
2015-08-05T01:59:49.327Z,95.65
2015-08-05T02:00:01.702Z,95.65
2015-08-05T02:00:14.077Z,95.55
2015-08-05T02:00:26.452Z,94.98
2015-08-05T02:00:38.829Z,95.07
2015-08-05T02:00:51.204Z,94.6
2015-08-05T02:01:03.579Z,94.51
2015-08-05T02:01:15.954Z,94.51
2015-08-05T02:01:28.329Z,94.23
2015-08-05T02:01:40.706Z,94.32
2015-08-05T02:01:53.081Z,94.03
2015-08-05T02:02:05.456Z,94.03
2015-08-05T02:02:17.847Z,94.03
2015-08-05T02:02:30.222Z,93.37
2015-08-05T02:02:42.584Z,93.27
2015-08-05T02:02:54.959Z,93.46
2015-08-05T02:03:07.334Z,93.56
2015-08-05T02:03:18.990Z,93.18
2015-08-05T02:03:31.365Z,92.71
2015-08-05T02:03:43.757Z,92.99
2015-08-05T02:03:56.132Z,92.61
2015-08-05T02:04:08.507Z,92.8
2015-08-05T02:04:20.882Z,92.23
2015-08-05T02:04:33.241Z,91.94
2015-08-05T02:04:45.618Z,91.38
2015-08-05T02:04:57.993Z,91.47
2015-08-05T02:05:10.384Z,91.56
2015-08-05T02:05:22.759Z,91.28
2015-08-05T02:05:34.431Z,90.81
2015-08-05T02:05:46.825Z,91.19
2015-08-05T02:05:59.200Z,90.9
2015-08-05T02:06:11.606Z,91
2015-08-05T02:06:23.996Z,91.19
2015-08-05T02:06:36.403Z,91
2015-08-05T02:06:48.810Z,90.62
2015-08-05T02:07:01.216Z,91
2015-08-05T02:07:13.607Z,90.9
2015-08-05T02:07:26.029Z,90.62
2015-08-05T02:07:37.732Z,91.09
2015-08-05T02:07:50.141Z,91
2015-08-05T02:08:02.547Z,90.62
2015-08-05T02:08:14.938Z,90.62
2015-08-05T02:08:26.641Z,90.9
2015-08-05T02:08:39.016Z,90.62
2015-08-05T02:08:51.393Z,91
2015-08-05T02:09:03.752Z,90.43
2015-08-05T02:09:16.127Z,90.9
2015-08-05T02:09:28.502Z,90.71
2015-08-05T02:09:40.877Z,90.81
2015-08-05T02:09:53.238Z,90.52
2015-08-05T02:10:05.628Z,90.62
2015-08-05T02:10:18.019Z,90.62
2015-08-05T02:10:30.378Z,90.71
2015-08-05T02:10:42.753Z,90.71
2015-08-05T02:10:55.147Z,90.52
2015-08-05T02:11:07.522Z,90.81
2015-08-05T02:11:19.897Z,91
2015-08-05T02:11:32.272Z,90.71
2015-08-05T02:11:44.647Z,90.62
2015-08-05T02:11:57.024Z,90.71
2015-08-05T02:12:09.399Z,90.14
2015-08-05T02:12:21.774Z,90.14
2015-08-05T02:12:34.149Z,89.95
2015-08-05T02:12:46.524Z,89.67
2015-08-05T02:12:58.917Z,89.58
2015-08-05T02:13:11.292Z,89.76
2015-08-05T02:13:23.651Z,89.48
2015-08-05T02:13:36.026Z,89.76
2015-08-05T02:13:48.401Z,89.86
2015-08-05T02:14:00.778Z,89.86
2015-08-05T02:14:13.153Z,89.29
2015-08-05T02:14:25.544Z,89.2
2015-08-05T02:14:37.934Z,89.43
2015-08-05T02:14:50.325Z,89.29
2015-08-05T02:15:02.702Z,89.67
2015-08-05T02:15:14.374Z,89.67
2015-08-05T02:15:26.764Z,89.86
2015-08-05T02:15:39.155Z,89.76
2015-08-05T02:15:51.577Z,89.76
2015-08-05T02:16:03.969Z,89.58
2015-08-05T02:16:16.375Z,89.58
2015-08-05T02:16:28.765Z,89.67
2015-08-05T02:16:41.187Z,89.67
2015-08-05T02:16:53.594Z,89.67
2015-08-05T02:17:05.986Z,89.95
2015-08-05T02:17:18.408Z,89.2
2015-08-05T02:17:30.814Z,89.58
2015-08-05T02:17:43.221Z,89.39
2015-08-05T02:17:55.658Z,88.72
2015-08-05T02:18:08.036Z,88.81
2015-08-05T02:18:20.411Z,89.14
2015-08-05T02:18:32.786Z,89
2015-08-05T02:18:45.161Z,89.1
2015-08-05T02:18:57.536Z,89
2015-08-05T02:19:09.913Z,89.1
2015-08-05T02:19:21.569Z,89.1
2015-08-05T02:19:33.960Z,89
2015-08-05T02:19:46.335Z,88.72
2015-08-05T02:19:58.710Z,89
2015-08-05T02:20:11.070Z,89
2015-08-05T02:20:23.445Z,89
2015-08-05T02:20:35.820Z,89.14
2015-08-05T02:20:48.180Z,89.1
2015-08-05T02:21:00.570Z,89.1
2015-08-05T02:21:12.947Z,89.05
2015-08-05T02:21:25.322Z,89.05
2015-08-05T02:21:37.697Z,88.76
2015-08-05T02:21:50.072Z,88.91
2015-08-05T02:22:02.447Z,89.2
2015-08-05T02:22:14.106Z,88.95
2015-08-05T02:22:26.496Z,89.05
2015-08-05T02:22:38.887Z,89.24
2015-08-05T02:22:51.277Z,89.05
2015-08-05T02:23:03.637Z,88.95
2015-08-05T02:23:16.014Z,88.72
2015-08-05T02:23:28.389Z,88.57
2015-08-05T02:23:40.764Z,88.67
2015-08-05T02:23:53.154Z,88.48
2015-08-05T02:24:05.529Z,88.29
2015-08-05T02:24:17.906Z,88.29
2015-08-05T02:24:30.281Z,88.1
2015-08-05T02:24:42.672Z,88.2
2015-08-05T02:24:55.047Z,88.2
2015-08-05T02:25:07.453Z,88.1
2015-08-05T02:25:19.862Z,87.91
2015-08-05T02:25:32.112Z,88.1
2015-08-05T02:25:44.518Z,88.1
2015-08-05T02:25:56.908Z,87.91
2015-08-05T02:26:09.330Z,88.29
2015-08-05T02:26:21.739Z,88.39
2015-08-05T02:26:34.129Z,88.29
2015-08-05T02:26:46.551Z,87.91
2015-08-05T02:26:58.239Z,87.91
2015-08-05T02:27:10.660Z,88.2
2015-08-05T02:27:23.069Z,88.29
2015-08-05T02:27:35.444Z,88.29
2015-08-05T02:27:47.850Z,88.2
2015-08-05T02:28:00.225Z,88.48
2015-08-05T02:28:12.600Z,88.2
2015-08-05T02:28:24.977Z,88.2
2015-08-05T02:28:37.352Z,88.29
2015-08-05T02:28:49.727Z,88.29
2015-08-05T02:29:02.102Z,88.01
2015-08-05T02:29:14.493Z,88.2
2015-08-05T02:29:26.854Z,88.1
2015-08-05T02:29:39.229Z,88.2
2015-08-05T02:29:51.604Z,87.91
2015-08-05T02:30:03.979Z,88.2
2015-08-05T02:30:16.354Z,88.29
2015-08-05T02:30:28.731Z,88.29
2015-08-05T02:30:41.106Z,88.76
2015-08-05T02:30:53.497Z,88.24
2015-08-05T02:31:05.872Z,88.39
2015-08-05T02:31:18.247Z,88.95
2015-08-05T02:31:30.624Z,88.86
2015-08-05T02:31:42.999Z,88.39
2015-08-05T02:31:55.389Z,88.62
2015-08-05T02:32:07.764Z,88.76
2015-08-05T02:32:20.139Z,88.67
2015-08-05T02:32:32.500Z,88.57
2015-08-05T02:32:44.875Z,88.67
2015-08-05T02:32:57.250Z,88.57
2015-08-05T02:33:09.625Z,88.67
2015-08-05T02:33:22.015Z,88.57
2015-08-05T02:33:33.689Z,88.76
2015-08-05T02:33:46.064Z,88.39
2015-08-05T02:33:58.455Z,88.53
2015-08-05T02:34:10.830Z,88.39
2015-08-05T02:34:23.220Z,88.67
2015-08-05T02:34:35.629Z,88.76
2015-08-05T02:34:48.050Z,88.67
2015-08-05T02:35:00.441Z,88.67
2015-08-05T02:35:12.832Z,88.29
2015-08-05T02:35:25.238Z,88.29
2015-08-05T02:35:37.647Z,88.29
2015-08-05T02:35:49.897Z,88.39
2015-08-05T02:36:02.319Z,88.76
2015-08-05T02:36:14.710Z,88.39
2015-08-05T02:36:27.132Z,88.48
2015-08-05T02:36:39.555Z,89.05
2015-08-05T02:36:51.962Z,88.86
2015-08-05T02:37:04.321Z,88.91
2015-08-05T02:37:16.696Z,88.34
2015-08-05T02:37:29.071Z,88.76
2015-08-05T02:37:41.432Z,88.29
2015-08-05T02:37:53.807Z,88.1
2015-08-05T02:38:06.182Z,88.29
2015-08-05T02:38:18.542Z,88.57
2015-08-05T02:38:30.932Z,88.57
2015-08-05T02:38:43.293Z,88.48
2015-08-05T02:38:55.668Z,88.57
2015-08-05T02:39:08.043Z,88.24
2015-08-05T02:39:20.402Z,88.1
2015-08-05T02:39:32.793Z,88.2